Time;durP1;ratioP1;P1;durP2;ratioP2;P2;SDS_P1;SDS_P2;PMS_P1;PMS_P2;Temp;Humidity;BMP_temperature;BMP_pressure;BME280_temperature;BME280_humidity;BME280_pressure;Samples;Min_cycle;Max_cycle;Signal;HPM_P1;HPM_P2
2024/02/20 00:02:06;;;;;;;;;;;6.80;99.90;;;;;;5030811;28;19943;-64
2024/02/20 00:04:38;;;;;;;;;;;6.80;99.90;;;;;;5027580;28;19960;-64
2024/02/20 00:07:10;;;;;;;;;;;6.80;99.90;;;;;;5027012;28;20449;-65
2024/02/20 00:09:42;;;;;;;;;;;6.80;99.90;;;;;;5027880;28;19925;-64
2024/02/20 00:12:15;;;;;;;;;;;6.70;99.90;;;;;;5027740;28;19935;-64
2024/02/20 00:14:47;;;;;;;;;;;6.70;99.90;;;;;;5027948;28;19925;-64
2024/02/20 00:17:19;;;;;;;;;;;6.70;99.90;;;;;;5028749;28;19921;-64
2024/02/20 00:19:51;;;;;;;;;;;6.60;99.90;;;;;;5026511;28;19928;-64
2024/02/20 00:22:18;;;;;;;;;;;6.60;99.90;;;;;;5029269;28;19929;-64
2024/02/20 00:24:44;;;;;;;;;;;6.60;99.90;;;;;;5012249;28;20396;-64
2024/02/20 00:27:11;;;;;;;;;;;6.50;99.90;;;;;;5026928;28;19925;-64
2024/02/20 00:29:38;;;;;;;;;;;6.60;99.90;;;;;;5028527;28;19925;-64
2024/02/20 00:32:11;;;;;;;;;;;6.60;99.90;;;;;;5011224;28;20014;-64
2024/02/20 00:34:37;;;;;;;;;;;6.50;99.90;;;;;;5028996;28;19932;-64
2024/02/20 00:37:05;;;;;;;;;;;6.50;99.90;;;;;;5026989;28;20030;-64
2024/02/20 00:39:37;;;;;;;;;;;6.50;99.90;;;;;;5028134;28;19971;-64
2024/02/20 00:42:09;;;;;;;;;;;6.50;99.90;;;;;;5026641;28;19976;-64
2024/02/20 00:44:41;;;;;;;;;;;6.50;99.90;;;;;;5031689;28;19921;-64
2024/02/20 00:47:09;;;;;;;;;;;6.50;99.90;;;;;;5030714;28;19967;-64
2024/02/20 00:49:41;;;;;;;;;;;6.50;99.90;;;;;;5033325;28;19947;-65
2024/02/20 00:52:08;;;;;;;;;;;6.50;99.90;;;;;;5033290;28;19932;-64
2024/02/20 00:54:41;;;;;;;;;;;6.50;99.90;;;;;;5032270;28;19929;-65
2024/02/20 00:57:09;;;;;;;;;;;6.40;99.90;;;;;;5031315;28;19929;-65
2024/02/20 00:59:41;;;;;;;;;;;6.40;99.90;;;;;;5032171;28;19928;-64
2024/02/20 01:02:13;;;;;;;;;;;6.40;99.90;;;;;;5033524;28;19921;-64
2024/02/20 01:04:45;;;;;;;;;;;6.40;99.90;;;;;;5033450;28;19972;-64
2024/02/20 01:07:17;;;;;;;;;;;6.40;99.90;;;;;;5000799;28;19932;-65
2024/02/20 01:09:49;;;;;;;;;;;6.40;99.90;;;;;;5033808;28;20012;-64
2024/02/20 01:12:15;;;;;;;;;;;6.40;99.90;;;;;;5033802;28;20336;-64
2024/02/20 01:14:47;;;;;;;;;;;6.40;99.90;;;;;;5033277;28;20312;-64
2024/02/20 01:17:14;;;;;;;;;;;6.40;99.90;;;;;;5033122;28;19932;-64
2024/02/20 01:19:46;;;;;;;;;;;6.40;99.90;;;;;;5033616;28;20377;-64
2024/02/20 01:22:18;;;;;;;;;;;6.40;99.90;;;;;;5031548;28;19925;-64
2024/02/20 01:24:49;;;;;;;;;;;6.40;99.90;;;;;;5032229;28;19931;-64
2024/02/20 01:27:21;;;;;;;;;;;6.40;99.90;;;;;;5031031;28;19928;-64
2024/02/20 01:29:53;;;;;;;;;;;6.30;99.90;;;;;;5033385;28;19932;-64
2024/02/20 01:32:25;;;;;;;;;;;6.40;99.90;;;;;;5030578;28;20028;-64
2024/02/20 01:34:57;;;;;;;;;;;6.40;99.90;;;;;;5033297;28;19925;-64
2024/02/20 01:37:29;;;;;;;;;;;6.30;99.90;;;;;;5033031;28;19927;-64
2024/02/20 01:39:56;;;;;;;;;;;6.30;99.90;;;;;;5031925;28;20570;-64
2024/02/20 01:42:28;;;;;;;;;;;6.30;99.90;;;;;;5011582;28;19925;-64
2024/02/20 01:44:55;;;;;;;;;;;6.30;99.90;;;;;;5033013;28;19932;-64
2024/02/20 01:47:26;;;;;;;;;;;6.30;99.90;;;;;;5032649;28;19964;-64
2024/02/20 01:49:58;;;;;;;;;;;6.30;99.90;;;;;;5006185;28;20424;-64
2024/02/20 01:52:30;;;;;;;;;;;6.30;99.90;;;;;;5031444;28;19975;-64
2024/02/20 01:55:00;;;;;;;;;;;6.30;99.90;;;;;;5000902;28;19928;-64
2024/02/20 01:57:31;;;;;;;;;;;6.30;99.90;;;;;;5031232;28;19998;-64
2024/02/20 02:00:06;;;;;;;;;;;6.30;99.90;;;;;;5032333;28;19925;-64
2024/02/20 02:02:38;;;;;;;;;;;6.30;99.90;;;;;;5032166;28;19921;-64
2024/02/20 02:05:10;;;;;;;;;;;6.30;99.90;;;;;;5028223;28;19925;-64
2024/02/20 02:07:42;;;;;;;;;;;6.30;99.90;;;;;;5014774;28;19921;-64
2024/02/20 02:10:08;;;;;;;;;;;6.30;99.90;;;;;;5032226;28;19921;-64
2024/02/20 02:12:40;;;;;;;;;;;6.30;99.90;;;;;;5031348;28;19980;-64
2024/02/20 02:15:12;;;;;;;;;;;6.30;99.90;;;;;;5023072;28;20393;-64
2024/02/20 02:17:44;;;;;;;;;;;6.30;99.90;;;;;;5030286;28;20029;-64
2024/02/20 02:20:11;;;;;;;;;;;6.20;99.90;;;;;;5031895;28;20427;-64
2024/02/20 02:22:38;;;;;;;;;;;6.30;99.90;;;;;;5031004;28;19924;-64
2024/02/20 02:25:09;;;;;;;;;;;6.20;99.90;;;;;;5031670;28;19921;-64
2024/02/20 02:27:41;;;;;;;;;;;6.20;99.90;;;;;;5014280;28;19924;-64
2024/02/20 02:30:14;;;;;;;;;;;6.20;99.90;;;;;;5028706;28;20338;-64
2024/02/20 02:32:46;;;;;;;;;;;6.20;99.90;;;;;;5030487;28;20011;-64
2024/02/20 02:35:18;;;;;;;;;;;6.20;99.90;;;;;;5012347;28;20023;-64
2024/02/20 02:37:50;;;;;;;;;;;6.20;99.90;;;;;;5009824;28;19975;-64
2024/02/20 02:40:17;;;;;;;;;;;6.20;99.90;;;;;;5029727;28;20583;-64
2024/02/20 02:42:49;;;;;;;;;;;6.20;99.90;;;;;;5031304;28;20011;-64
2024/02/20 02:45:21;;;;;;;;;;;6.20;99.90;;;;;;5030899;28;20008;-64
2024/02/20 02:47:53;;;;;;;;;;;6.20;99.90;;;;;;5030512;28;19968;-64
2024/02/20 02:50:20;;;;;;;;;;;6.20;99.90;;;;;;5026517;28;19921;-64
2024/02/20 02:52:46;;;;;;;;;;;6.20;99.90;;;;;;5028166;28;19982;-64
2024/02/20 02:55:21;;;;;;;;;;;6.20;99.90;;;;;;5031560;28;20022;-64
2024/02/20 02:57:52;;;;;;;;;;;6.20;99.90;;;;;;5031452;28;20024;-64
2024/02/20 03:00:20;;;;;;;;;;;6.10;99.90;;;;;;5031220;28;19947;-64
2024/02/20 03:02:51;;;;;;;;;;;6.10;99.90;;;;;;5031210;28;20314;-64
2024/02/20 03:05:18;;;;;;;;;;;6.10;99.90;;;;;;5030481;28;19932;-64
2024/02/20 03:07:50;;;;;;;;;;;6.10;99.90;;;;;;5001370;28;20006;-64
2024/02/20 03:10:22;;;;;;;;;;;6.10;99.90;;;;;;5005958;28;20444;-64
2024/02/20 03:12:55;;;;;;;;;;;6.20;99.90;;;;;;5031056;28;19921;-64
2024/02/20 03:15:27;;;;;;;;;;;6.20;99.90;;;;;;5031051;28;19931;-64
2024/02/20 03:17:59;;;;;;;;;;;6.10;99.90;;;;;;5030809;28;19967;-64
2024/02/20 03:20:31;;;;;;;;;;;6.10;99.90;;;;;;5030951;28;20015;-64
2024/02/20 03:22:57;;;;;;;;;;;6.10;99.90;;;;;;5012214;28;19975;-64
2024/02/20 03:25:29;;;;;;;;;;;6.10;99.90;;;;;;5010598;28;20208;-64
2024/02/20 03:28:01;;;;;;;;;;;6.10;99.90;;;;;;4998970;28;20389;-64
2024/02/20 03:30:33;;;;;;;;;;;6.20;99.90;;;;;;5013080;28;20409;-64
2024/02/20 03:33:06;;;;;;;;;;;6.20;99.90;;;;;;5030724;28;19921;-64
2024/02/20 03:35:38;;;;;;;;;;;6.20;99.90;;;;;;5029845;28;19997;-64
2024/02/20 03:38:05;;;;;;;;;;;6.10;99.90;;;;;;5023830;28;19928;-64
2024/02/20 03:40:32;;;;;;;;;;;6.10;99.90;;;;;;5008978;28;19921;-64
2024/02/20 03:42:59;;;;;;;;;;;6.10;99.90;;;;;;5030657;28;20540;-64
2024/02/20 03:45:30;;;;;;;;;;;6.10;99.90;;;;;;5007122;28;20357;-64
2024/02/20 03:48:02;;;;;;;;;;;6.10;99.90;;;;;;5030376;28;19928;-64
2024/02/20 03:50:29;;;;;;;;;;;6.10;99.90;;;;;;5030555;28;19931;-64
2024/02/20 03:52:56;;;;;;;;;;;6.10;99.90;;;;;;5030520;28;19921;-64
2024/02/20 03:55:27;;;;;;;;;;;6.10;99.90;;;;;;5028869;28;19927;-64
2024/02/20 03:57:59;;;;;;;;;;;6.10;99.90;;;;;;5029618;28;19925;-64
2024/02/20 04:00:31;;;;;;;;;;;6.10;99.90;;;;;;5005399;28;20360;-64
2024/02/20 04:03:03;;;;;;;;;;;6.10;99.90;;;;;;5028981;28;19925;-64
2024/02/20 04:05:35;;;;;;;;;;;6.10;99.90;;;;;;5030162;28;20485;-64
2024/02/20 04:08:06;;;;;;;;;;;6.10;99.90;;;;;;5010014;28;20370;-64
2024/02/20 04:10:33;;;;;;;;;;;6.10;99.90;;;;;;5030379;28;19921;-64
2024/02/20 04:13:00;;;;;;;;;;;6.10;99.90;;;;;;5029982;28;19964;-64
2024/02/20 04:15:27;;;;;;;;;;;6.00;99.90;;;;;;5029392;28;20003;-64
2024/02/20 04:17:58;;;;;;;;;;;6.00;99.90;;;;;;5012889;28;20381;-64
2024/02/20 04:20:30;;;;;;;;;;;6.10;99.90;;;;;;5012036;28;20018;-64
2024/02/20 04:22:57;;;;;;;;;;;6.00;99.90;;;;;;5034450;28;19927;-64
2024/02/20 04:25:29;;;;;;;;;;;6.00;99.90;;;;;;5034644;28;19927;-64
2024/02/20 04:28:01;;;;;;;;;;;6.00;99.90;;;;;;5013907;28;19921;-65
2024/02/20 04:30:34;;;;;;;;;;;6.00;99.90;;;;;;5036567;28;19956;-64
2024/02/20 04:33:06;;;;;;;;;;;6.00;99.90;;;;;;5003286;28;19928;-64
2024/02/20 04:35:38;;;;;;;;;;;6.00;99.90;;;;;;5017433;28;19932;-64
2024/02/20 04:38:10;;;;;;;;;;;5.90;99.90;;;;;;5031205;28;19921;-64
2024/02/20 04:40:42;;;;;;;;;;;5.90;99.90;;;;;;5034267;28;19928;-64
2024/02/20 04:43:14;;;;;;;;;;;5.90;99.90;;;;;;5000146;28;20358;-64
2024/02/20 04:45:47;;;;;;;;;;;5.90;99.90;;;;;;5017282;28;19929;-64
2024/02/20 04:48:19;;;;;;;;;;;5.90;99.90;;;;;;5031903;28;20547;-64
2024/02/20 04:50:50;;;;;;;;;;;5.90;99.90;;;;;;5021967;28;19921;-64
2024/02/20 04:53:22;;;;;;;;;;;5.90;99.90;;;;;;5015588;28;19929;-64
2024/02/20 04:55:54;;;;;;;;;;;5.90;99.90;;;;;;5008667;28;19929;-64
2024/02/20 04:58:26;;;;;;;;;;;5.90;99.90;;;;;;5031336;28;19925;-64
2024/02/20 05:00:58;;;;;;;;;;;5.90;99.90;;;;;;5033860;28;19959;-64
2024/02/20 05:03:29;;;;;;;;;;;6.00;99.90;;;;;;5033662;28;19921;-64
2024/02/20 05:06:01;;;;;;;;;;;6.10;99.90;;;;;;5033752;28;19929;-64
2024/02/20 05:08:28;;;;;;;;;;;6.00;99.90;;;;;;5031998;28;19928;-65
2024/02/20 05:11:00;;;;;;;;;;;6.00;99.90;;;;;;5032770;28;19956;-64
2024/02/20 05:13:31;;;;;;;;;;;6.00;99.90;;;;;;5031739;28;19928;-65
2024/02/20 05:16:03;;;;;;;;;;;6.00;99.90;;;;;;5032718;28;19921;-64
2024/02/20 05:18:35;;;;;;;;;;;6.00;99.90;;;;;;5032004;28;19925;-65
2024/02/20 05:21:02;;;;;;;;;;;6.00;99.90;;;;;;5033662;28;20411;-65
2024/02/20 05:23:34;;;;;;;;;;;6.00;99.90;;;;;;5032635;28;19928;-65
2024/02/20 05:26:06;;;;;;;;;;;6.00;99.90;;;;;;5032547;28;20444;-65
2024/02/20 05:28:38;;;;;;;;;;;6.00;99.90;;;;;;5025297;28;20016;-65
2024/02/20 05:31:26;;;;;;;;;;;6.00;99.90;;;;;;5028891;28;19921;-65
2024/02/20 05:33:53;;;;;;;;;;;5.90;99.90;;;;;;5015306;28;19921;-64
2024/02/20 05:36:31;;;;;;;;;;;5.90;99.90;;;;;;5027500;28;19925;-63
2024/02/20 05:39:03;;;;;;;;;;;5.90;99.90;;;;;;5031737;28;19983;-64
2024/02/20 05:41:30;;;;;;;;;;;5.90;99.90;;;;;;5011446;28;19921;-63
2024/02/20 05:43:59;;;;;;;;;;;5.90;99.90;;;;;;5032024;28;20338;-66
2024/02/20 05:46:27;;;;;;;;;;;5.90;99.90;;;;;;5030909;28;20391;-66
2024/02/20 05:48:59;;;;;;;;;;;5.90;99.90;;;;;;5018280;28;20000;-65
2024/02/20 05:51:31;;;;;;;;;;;5.80;99.90;;;;;;5027826;28;20016;-65
2024/02/20 05:54:03;;;;;;;;;;;5.80;99.90;;;;;;5032135;28;20387;-65
2024/02/20 05:56:36;;;;;;;;;;;5.80;99.90;;;;;;5014807;28;19925;-65
2024/02/20 05:59:08;;;;;;;;;;;5.70;99.90;;;;;;5006835;28;19956;-65
2024/02/20 06:01:35;;;;;;;;;;;5.70;99.90;;;;;;5030660;28;19931;-65
2024/02/20 06:04:04;;;;;;;;;;;5.70;99.90;;;;;;5028474;28;20059;-65
2024/02/20 06:06:36;;;;;;;;;;;5.70;99.90;;;;;;5027209;28;19921;-65
2024/02/20 06:09:08;;;;;;;;;;;5.80;99.90;;;;;;5027908;28;19964;-64
2024/02/20 06:11:39;;;;;;;;;;;5.70;99.90;;;;;;5027738;28;19928;-65
2024/02/20 06:14:11;;;;;;;;;;;5.70;99.90;;;;;;5029453;28;19950;-65
2024/02/20 06:16:43;;;;;;;;;;;5.60;99.90;;;;;;5008110;28;20237;-65
2024/02/20 06:19:15;;;;;;;;;;;5.70;99.90;;;;;;5011433;28;19948;-64
2024/02/20 06:21:43;;;;;;;;;;;5.60;99.90;;;;;;5028748;28;19972;-65
2024/02/20 06:24:09;;;;;;;;;;;5.60;99.90;;;;;;5028903;28;19956;-65
2024/02/20 06:26:41;;;;;;;;;;;5.60;99.90;;;;;;5029389;28;20392;-65
2024/02/20 06:29:13;;;;;;;;;;;5.60;99.90;;;;;;5015934;28;20380;-65
2024/02/20 06:31:51;;;;;;;;;;;5.60;99.90;;;;;;5026022;28;19960;-65
2024/02/20 06:34:22;;;;;;;;;;;5.50;99.90;;;;;;5028682;28;20071;-64
2024/02/20 06:36:54;;;;;;;;;;;5.50;99.90;;;;;;5027376;28;19957;-64
2024/02/20 06:39:28;;;;;;;;;;;5.50;99.90;;;;;;5009108;28;20385;-65
2024/02/20 06:41:59;;;;;;;;;;;5.50;99.90;;;;;;5023702;28;19936;-65
2024/02/20 06:44:31;;;;;;;;;;;5.40;99.90;;;;;;5024638;28;19960;-65
2024/02/20 06:47:03;;;;;;;;;;;5.40;99.90;;;;;;5014845;28;19971;-65
2024/02/20 06:49:30;;;;;;;;;;;5.50;99.90;;;;;;5025176;28;19928;-65
2024/02/20 06:52:01;;;;;;;;;;;5.50;99.90;;;;;;5010552;28;20389;-65
2024/02/20 06:54:28;;;;;;;;;;;5.50;99.90;;;;;;5029603;28;20011;-66
2024/02/20 06:56:55;;;;;;;;;;;5.50;99.90;;;;;;5020867;28;20454;-65
2024/02/20 06:59:27;;;;;;;;;;;5.50;99.90;;;;;;5016675;28;19960;-65
2024/02/20 07:01:59;;;;;;;;;;;5.50;99.90;;;;;;5017033;28;19971;-65
2024/02/20 07:04:31;;;;;;;;;;;5.50;99.90;;;;;;5011773;28;19932;-65
2024/02/20 07:07:03;;;;;;;;;;;5.40;99.90;;;;;;5007347;28;20268;-65
2024/02/20 07:09:35;;;;;;;;;;;5.50;99.90;;;;;;5015757;28;19929;-64
2024/02/20 07:12:07;;;;;;;;;;;5.50;99.90;;;;;;5011972;28;19959;-65
2024/02/20 07:14:39;;;;;;;;;;;5.50;99.90;;;;;;5024751;28;19931;-65
2024/02/20 07:17:06;;;;;;;;;;;5.50;99.90;;;;;;5010599;28;19921;-65
2024/02/20 07:19:38;;;;;;;;;;;5.50;99.90;;;;;;5021784;28;19935;-65
2024/02/20 07:22:05;;;;;;;;;;;5.50;99.90;;;;;;5027549;28;20120;-65
2024/02/20 07:24:37;;;;;;;;;;;5.50;99.90;;;;;;5029310;28;20032;-65
2024/02/20 07:27:08;;;;;;;;;;;5.50;99.90;;;;;;5025419;28;19921;-65
2024/02/20 07:29:41;;;;;;;;;;;5.50;99.90;;;;;;5028581;28;19925;-63
2024/02/20 07:32:09;;;;;;;;;;;5.50;99.90;;;;;;5010841;28;19948;-64
2024/02/20 07:34:41;;;;;;;;;;;5.50;99.90;;;;;;5030341;28;19925;-65
2024/02/20 07:37:13;;;;;;;;;;;5.40;99.90;;;;;;5029431;28;19925;-65
2024/02/20 07:39:40;;;;;;;;;;;5.50;99.90;;;;;;5029569;28;19925;-65
2024/02/20 07:42:12;;;;;;;;;;;5.40;99.90;;;;;;5013362;28;19970;-64
2024/02/20 07:44:39;;;;;;;;;;;5.50;99.90;;;;;;5029884;28;19998;-65
2024/02/20 07:47:11;;;;;;;;;;;5.50;99.90;;;;;;5027583;28;19969;-65
2024/02/20 07:49:42;;;;;;;;;;;5.50;99.90;;;;;;5019917;28;19922;-65
2024/02/20 07:52:14;;;;;;;;;;;5.60;99.90;;;;;;5008644;28;19932;-65
2024/02/20 07:54:46;;;;;;;;;;;5.60;99.90;;;;;;5032131;28;19928;-65
2024/02/20 07:57:18;;;;;;;;;;;5.70;99.90;;;;;;5031791;28;19967;-65
2024/02/20 07:59:44;;;;;;;;;;;5.70;99.90;;;;;;5032914;28;19932;-65
2024/02/20 08:02:16;;;;;;;;;;;5.70;99.90;;;;;;5031746;28;19921;-65
2024/02/20 08:04:48;;;;;;;;;;;5.70;99.90;;;;;;5030261;28;19925;-65
2024/02/20 08:07:20;;;;;;;;;;;5.80;99.90;;;;;;5030577;28;20377;-65
2024/02/20 08:09:48;;;;;;;;;;;5.70;99.90;;;;;;5015245;28;20116;-65
2024/02/20 08:12:20;;;;;;;;;;;5.70;99.90;;;;;;4999939;28;20417;-65
2024/02/20 08:14:51;;;;;;;;;;;5.80;99.90;;;;;;5029143;28;20309;-65
2024/02/20 08:17:23;;;;;;;;;;;5.80;99.90;;;;;;5031500;28;20308;-65
2024/02/20 08:19:50;;;;;;;;;;;5.90;99.90;;;;;;5032788;28;19971;-65
2024/02/20 08:22:22;;;;;;;;;;;5.90;99.90;;;;;;5032326;28;19928;-65
2024/02/20 08:24:49;;;;;;;;;;;6.00;99.90;;;;;;5031640;28;19921;-64
2024/02/20 08:27:20;;;;;;;;;;;5.90;99.90;;;;;;5033636;28;20373;-65
2024/02/20 08:29:48;;;;;;;;;;;5.90;99.90;;;;;;5033956;28;19971;-65
2024/02/20 08:32:19;;;;;;;;;;;5.90;99.90;;;;;;5011224;28;19975;-65
2024/02/20 08:34:51;;;;;;;;;;;6.00;99.90;;;;;;5036173;28;19925;-65
2024/02/20 08:37:23;;;;;;;;;;;5.90;99.90;;;;;;4997867;28;19979;-66
2024/02/20 08:39:55;;;;;;;;;;;5.90;99.90;;;;;;5031264;28;19931;-65
2024/02/20 08:42:26;;;;;;;;;;;5.90;99.90;;;;;;5011169;28;19960;-65
2024/02/20 08:44:53;;;;;;;;;;;5.90;99.90;;;;;;5015487;28;19932;-65
2024/02/20 08:47:21;;;;;;;;;;;6.00;99.90;;;;;;5030151;28;19925;-65
2024/02/20 08:49:53;;;;;;;;;;;5.90;99.90;;;;;;5009007;28;19929;-65
2024/02/20 08:52:20;;;;;;;;;;;6.00;99.90;;;;;;5030916;28;20008;-65
2024/02/20 08:54:46;;;;;;;;;;;6.00;99.90;;;;;;5032367;28;20016;-65
2024/02/20 08:57:13;;;;;;;;;;;6.10;99.90;;;;;;5034361;28;19925;-65
2024/02/20 08:59:45;;;;;;;;;;;6.00;99.90;;;;;;5035551;28;20286;-65
2024/02/20 09:02:13;;;;;;;;;;;6.00;99.90;;;;;;5025624;28;20536;-65
2024/02/20 09:04:45;;;;;;;;;;;6.10;99.90;;;;;;5027817;28;19925;-65
2024/02/20 09:07:16;;;;;;;;;;;6.10;99.90;;;;;;5030526;28;19976;-65
2024/02/20 09:09:48;;;;;;;;;;;6.20;99.90;;;;;;5031911;28;19924;-64
2024/02/20 09:12:20;;;;;;;;;;;6.20;99.90;;;;;;5029961;28;19921;-65
2024/02/20 09:14:52;;;;;;;;;;;6.20;99.90;;;;;;5030441;28;20454;-64
2024/02/20 09:17:24;;;;;;;;;;;6.20;99.90;;;;;;5031493;28;20471;-64
2024/02/20 09:19:55;;;;;;;;;;;6.30;99.90;;;;;;5031163;28;20356;-64
2024/02/20 09:22:28;;;;;;;;;;;6.30;99.90;;;;;;5032720;28;19986;-65
2024/02/20 09:24:59;;;;;;;;;;;6.40;99.90;;;;;;5009194;28;20384;-65
2024/02/20 09:27:31;;;;;;;;;;;6.50;99.90;;;;;;5030215;28;19925;-64
2024/02/20 09:30:05;;;;;;;;;;;6.60;99.90;;;;;;5029798;28;19925;-64
2024/02/20 09:32:32;;;;;;;;;;;6.60;99.90;;;;;;5027949;28;19931;-64
2024/02/20 09:35:04;;;;;;;;;;;6.70;99.90;;;;;;5031095;28;19929;-64
2024/02/20 09:37:31;;;;;;;;;;;6.70;99.90;;;;;;5028663;28;19931;-64
2024/02/20 09:39:57;;;;;;;;;;;6.70;99.90;;;;;;5030296;28;20024;-65
2024/02/20 09:42:30;;;;;;;;;;;6.70;99.90;;;;;;5018346;28;19921;-64
2024/02/20 09:44:57;;;;;;;;;;;6.80;99.90;;;;;;5034442;28;19928;-64
2024/02/20 09:47:28;;;;;;;;;;;6.80;99.90;;;;;;5023150;28;19925;-64
2024/02/20 09:50:01;;;;;;;;;;;6.80;99.90;;;;;;5026975;28;19956;-64
2024/02/20 09:52:33;;;;;;;;;;;6.80;99.90;;;;;;5029527;28;20300;-64
2024/02/20 09:55:00;;;;;;;;;;;6.90;99.90;;;;;;5027381;28;19921;-64
2024/02/20 09:57:33;;;;;;;;;;;7.00;99.90;;;;;;5038818;28;19932;-64
2024/02/20 10:00:05;;;;;;;;;;;7.00;99.90;;;;;;5015591;28;20628;-64
2024/02/20 10:02:41;;;;;;;;;;;7.00;99.90;;;;;;5028587;28;19925;-64
2024/02/20 10:05:16;;;;;;;;;;;7.10;99.90;;;;;;5018018;28;19921;-64
2024/02/20 10:07:44;;;;;;;;;;;7.00;99.90;;;;;;5028845;28;19921;-64
2024/02/20 10:10:16;;;;;;;;;;;7.10;99.90;;;;;;5031625;28;19979;-64
2024/02/20 10:12:59;;;;;;;;;;;7.10;99.90;;;;;;5031445;28;19933;-64
2024/02/20 10:15:31;;;;;;;;;;;7.10;99.90;;;;;;5030455;28;19973;-64
2024/02/20 10:18:03;;;;;;;;;;;7.10;99.90;;;;;;5030296;28;19927;-64
2024/02/20 10:20:35;;;;;;;;;;;7.00;99.90;;;;;;5034314;28;20007;-64
2024/02/20 10:23:08;;;;;;;;;;;7.00;99.90;;;;;;5031061;28;19932;-64
2024/02/20 10:25:36;;;;;;;;;;;7.00;99.90;;;;;;5029849;28;20405;-64
2024/02/20 10:28:08;;;;;;;;;;;7.00;99.90;;;;;;5028899;28;20555;-64
2024/02/20 10:30:35;;;;;;;;;;;7.00;99.90;;;;;;5032349;28;19931;-64
2024/02/20 10:33:02;;;;;;;;;;;7.00;99.90;;;;;;5032648;28;20055;-64
2024/02/20 10:35:35;;;;;;;;;;;6.70;99.90;;;;;;5029652;28;19921;-64
2024/02/20 10:38:07;;;;;;;;;;;6.40;99.90;;;;;;5029298;28;19921;-65
2024/02/20 10:40:34;;;;;;;;;;;6.30;99.90;;;;;;5004541;28;19947;-64
2024/02/20 10:43:06;;;;;;;;;;;6.20;99.90;;;;;;5030417;28;20502;-64
2024/02/20 10:45:34;;;;;;;;;;;6.20;99.90;;;;;;5012952;28;19925;-65
2024/02/20 10:48:10;;;;;;;;;;;6.20;99.90;;;;;;4993753;28;19925;-64
2024/02/20 10:50:42;;;;;;;;;;;6.10;99.90;;;;;;5028968;28;20309;-64
2024/02/20 10:53:14;;;;;;;;;;;6.20;99.90;;;;;;5026173;28;20274;-64
2024/02/20 10:55:42;;;;;;;;;;;6.20;99.90;;;;;;5010838;28;20007;-64
2024/02/20 10:58:16;;;;;;;;;;;6.20;99.90;;;;;;5012455;28;19924;-65
2024/02/20 11:00:49;;;;;;;;;;;6.30;99.90;;;;;;5010183;28;20455;-65
2024/02/20 11:03:21;;;;;;;;;;;6.30;99.90;;;;;;5028587;28;19988;-65
2024/02/20 11:05:56;;;;;;;;;;;6.40;99.90;;;;;;5011913;28;19925;-64
2024/02/20 11:08:28;;;;;;;;;;;6.40;99.90;;;;;;5011740;28;19933;-65
2024/02/20 11:10:55;;;;;;;;;;;6.50;99.90;;;;;;5030250;28;19927;-65
2024/02/20 11:13:28;;;;;;;;;;;6.60;99.90;;;;;;5001701;28;20290;-65
2024/02/20 11:16:13;;;;;;;;;;;6.60;99.90;;;;;;5026091;28;19928;-64
2024/02/20 11:18:52;;;;;;;;;;;6.60;99.90;;;;;;5026665;28;20393;-64
2024/02/20 11:21:26;;;;;;;;;;;6.60;99.90;;;;;;5028741;28;19927;-64
2024/02/20 11:24:18;;;;;;;;;;;6.70;99.90;;;;;;5016281;28;20486;-64
2024/02/20 11:26:47;;;;;;;;;;;6.80;99.90;;;;;;5028092;28;19974;-64
2024/02/20 11:29:25;;;;;;;;;;;6.90;99.90;;;;;;5008298;28;20420;-64
2024/02/20 11:32:08;;;;;;;;;;;6.90;99.90;;;;;;5030138;28;19925;-64
2024/02/20 11:34:40;;;;;;;;;;;7.00;99.90;;;;;;5032318;28;20316;-64
2024/02/20 11:37:11;;;;;;;;;;;7.10;99.90;;;;;;5025921;28;20397;-65
2024/02/20 11:39:46;;;;;;;;;;;7.30;99.90;;;;;;5029847;28;19983;-65
2024/02/20 11:42:19;;;;;;;;;;;7.40;99.90;;;;;;5029861;28;19924;-64
2024/02/20 11:44:46;;;;;;;;;;;7.30;99.90;;;;;;5029742;28;19996;-64
2024/02/20 11:47:17;;;;;;;;;;;7.30;99.90;;;;;;5029079;28;19921;-64
2024/02/20 11:50:00;;;;;;;;;;;7.20;99.90;;;;;;5028320;28;19951;-64
2024/02/20 11:52:27;;;;;;;;;;;7.20;99.90;;;;;;5028512;28;19928;-64
2024/02/20 11:55:07;;;;;;;;;;;7.20;99.90;;;;;;5029727;28;19925;-64
2024/02/20 11:57:42;;;;;;;;;;;7.20;99.90;;;;;;4992361;28;20031;-64
2024/02/20 12:00:14;;;;;;;;;;;7.30;99.90;;;;;;5024328;28;20016;-64
2024/02/20 12:02:41;;;;;;;;;;;7.30;99.90;;;;;;5029065;28;19931;-64
2024/02/20 12:05:20;;;;;;;;;;;7.30;99.90;;;;;;5028123;28;19929;-64
2024/02/20 12:07:53;;;;;;;;;;;7.40;99.90;;;;;;5023208;28;19925;-64
2024/02/20 12:10:25;;;;;;;;;;;7.50;99.90;;;;;;5011353;28;19921;-64
2024/02/20 12:13:10;;;;;;;;;;;7.50;99.90;;;;;;5017025;28;19928;-64
2024/02/20 12:15:42;;;;;;;;;;;7.60;99.90;;;;;;5027334;28;19947;-64
2024/02/20 12:18:21;;;;;;;;;;;7.80;99.90;;;;;;5025260;28;20011;-64
2024/02/20 12:20:48;;;;;;;;;;;7.90;99.90;;;;;;5026812;28;20011;-64
2024/02/20 12:23:18;;;;;;;;;;;8.00;99.90;;;;;;5028153;28;19925;-64
2024/02/20 12:25:50;;;;;;;;;;;8.00;99.90;;;;;;5004293;28;19932;-64
2024/02/20 12:28:16;;;;;;;;;;;7.90;99.90;;;;;;5028822;28;19929;-64
2024/02/20 12:30:48;;;;;;;;;;;7.90;99.90;;;;;;5028923;28;19921;-64
2024/02/20 12:33:20;;;;;;;;;;;7.90;99.90;;;;;;5027175;28;20031;-64
2024/02/20 12:35:56;;;;;;;;;;;7.90;99.90;;;;;;5023922;28;19925;-64
2024/02/20 12:38:31;;;;;;;;;;;8.00;99.90;;;;;;5027966;28;19921;-64
2024/02/20 12:40:58;;;;;;;;;;;8.20;99.90;;;;;;5014088;28;20404;-64
2024/02/20 12:43:29;;;;;;;;;;;8.20;99.90;;;;;;5013378;28;19936;-64
2024/02/20 12:46:01;;;;;;;;;;;8.10;99.90;;;;;;5030160;28;20380;-64
2024/02/20 12:48:34;;;;;;;;;;;8.10;99.90;;;;;;5028039;28;20388;-64
2024/02/20 12:51:06;;;;;;;;;;;8.20;99.90;;;;;;5032026;28;19921;-64
2024/02/20 12:53:38;;;;;;;;;;;8.30;99.90;;;;;;5011362;28;19925;-64
2024/02/20 12:56:10;;;;;;;;;;;8.40;99.90;;;;;;5029500;28;20468;-64
2024/02/20 12:58:41;;;;;;;;;;;8.40;99.90;;;;;;5014027;28;19952;-64
2024/02/20 13:01:13;;;;;;;;;;;8.40;99.90;;;;;;5032920;28;19949;-64
2024/02/20 13:03:45;;;;;;;;;;;8.30;99.90;;;;;;5032452;28;19921;-64
2024/02/20 13:06:17;;;;;;;;;;;8.20;99.90;;;;;;5031263;28;20419;-64
2024/02/20 13:08:49;;;;;;;;;;;8.20;99.90;;;;;;5028325;28;19931;-64
2024/02/20 13:11:21;;;;;;;;;;;8.20;99.90;;;;;;5032120;28;19924;-64
2024/02/20 13:13:48;;;;;;;;;;;8.20;99.90;;;;;;5032018;28;19927;-64
2024/02/20 13:16:20;;;;;;;;;;;8.50;99.90;;;;;;5022537;28;19929;-64
2024/02/20 13:18:52;;;;;;;;;;;8.60;99.90;;;;;;5003964;28;19944;-64
2024/02/20 13:21:24;;;;;;;;;;;8.60;99.90;;;;;;5028980;28;19921;-64
2024/02/20 13:23:57;;;;;;;;;;;8.70;99.90;;;;;;5014178;28;19928;-64
2024/02/20 13:26:29;;;;;;;;;;;8.60;99.90;;;;;;5030489;28;20400;-64
2024/02/20 13:28:55;;;;;;;;;;;8.50;99.90;;;;;;5015902;28;19925;-64
2024/02/20 13:31:27;;;;;;;;;;;8.40;99.90;;;;;;5025123;28;19921;-64
2024/02/20 13:33:59;;;;;;;;;;;8.40;99.90;;;;;;5030907;28;19972;-64
2024/02/20 13:36:31;;;;;;;;;;;8.30;99.90;;;;;;5031731;28;19929;-63
2024/02/20 13:39:03;;;;;;;;;;;8.30;99.90;;;;;;5030309;28;20416;-64
2024/02/20 13:41:30;;;;;;;;;;;8.40;99.90;;;;;;5030863;28;19928;-64
2024/02/20 13:43:57;;;;;;;;;;;8.60;99.90;;;;;;5031394;28;19921;-63
2024/02/20 13:46:29;;;;;;;;;;;8.60;99.90;;;;;;5027897;28;19924;-63
2024/02/20 13:49:02;;;;;;;;;;;8.50;99.90;;;;;;5017179;28;19932;-64
2024/02/20 13:51:31;;;;;;;;;;;8.60;99.90;;;;;;5029016;28;19947;-64
2024/02/20 13:54:03;;;;;;;;;;;8.50;99.90;;;;;;5031172;28;20380;-64
2024/02/20 13:56:30;;;;;;;;;;;8.40;99.90;;;;;;5030700;28;20597;-63
2024/02/20 13:58:57;;;;;;;;;;;8.50;99.90;;;;;;5035890;28;19976;-64
2024/02/20 14:01:28;;;;;;;;;;;8.50;99.90;;;;;;5030554;28;19921;-64
2024/02/20 14:03:55;;;;;;;;;;;8.50;99.90;;;;;;5007618;28;19928;-64
2024/02/20 14:06:27;;;;;;;;;;;8.50;99.90;;;;;;5028577;28;19944;-64
2024/02/20 14:08:59;;;;;;;;;;;8.50;99.90;;;;;;5032452;28;19927;-64
2024/02/20 14:11:31;;;;;;;;;;;8.40;99.90;;;;;;5028048;28;19929;-64
2024/02/20 14:14:03;;;;;;;;;;;8.40;99.90;;;;;;5030086;28;19921;-64
2024/02/20 14:16:36;;;;;;;;;;;8.40;99.90;;;;;;5029639;28;19928;-64
2024/02/20 14:19:08;;;;;;;;;;;8.40;99.90;;;;;;5015388;28;20597;-64
2024/02/20 14:21:40;;;;;;;;;;;8.40;99.90;;;;;;5029455;28;19925;-64
2024/02/20 14:24:11;;;;;;;;;;;8.40;99.90;;;;;;5029936;28;19929;-63
2024/02/20 14:26:38;;;;;;;;;;;8.50;99.90;;;;;;5032505;28;19925;-64
2024/02/20 14:29:10;;;;;;;;;;;8.50;99.90;;;;;;5027791;28;20293;-64
2024/02/20 14:31:42;;;;;;;;;;;8.50;99.90;;;;;;5029438;28;19921;-64
2024/02/20 14:34:14;;;;;;;;;;;8.60;99.90;;;;;;5011807;28;19932;-64
2024/02/20 14:36:45;;;;;;;;;;;8.60;99.90;;;;;;5025620;28;20012;-63
2024/02/20 14:39:17;;;;;;;;;;;8.60;99.90;;;;;;5027367;28;19927;-64
2024/02/20 14:41:50;;;;;;;;;;;8.70;99.90;;;;;;5028059;28;20431;-64
2024/02/20 14:44:22;;;;;;;;;;;8.80;99.90;;;;;;4995670;28;19931;-64
2024/02/20 14:46:54;;;;;;;;;;;9.10;99.90;;;;;;5028116;28;19925;-64
2024/02/20 14:49:26;;;;;;;;;;;9.10;99.90;;;;;;5010000;28;19981;-64
2024/02/20 14:51:58;;;;;;;;;;;9.10;99.90;;;;;;5025946;28;19932;-64
2024/02/20 14:54:31;;;;;;;;;;;9.00;99.90;;;;;;5029210;28;19975;-64